Time;durP1;ratioP1;P1;durP2;ratioP2;P2;SDS_P1;SDS_P2;PMS_P1;PMS_P2;Temp;Humidity;BMP_temperature;BMP_pressure;BME280_temperature;BME280_humidity;BME280_pressure;Samples;Min_cycle;Max_cycle;Signal;HPM_P1;HPM_P2
2022/11/14 00:01:31;;;;;;;0.20;0.20;;;9.10;99.90;;;;;;4949519;29;20210;-89
2022/11/14 00:03:57;;;;;;;0.20;0.20;;;9.10;99.90;;;;;;4948033;28;20253;-89
2022/11/14 00:06:22;;;;;;;0.30;0.30;;;9.10;99.90;;;;;;4950472;28;20446;-91
2022/11/14 00:08:47;;;;;;;0.20;0.20;;;9.00;99.90;;;;;;4951017;28;20730;-87
2022/11/14 00:11:13;;;;;;;0.20;0.20;;;9.00;99.90;;;;;;4955098;28;20229;-89
2022/11/14 00:13:38;;;;;;;0.20;0.20;;;9.00;99.90;;;;;;4944061;28;20266;-90
2022/11/14 00:16:04;;;;;;;0.20;0.20;;;9.00;99.90;;;;;;4949187;28;20187;-89
2022/11/14 00:18:29;;;;;;;0.20;0.20;;;9.00;99.90;;;;;;4950600;28;20233;-89
2022/11/14 00:20:55;;;;;;;0.20;0.20;;;9.00;99.90;;;;;;4947908;28;20233;-89
2022/11/14 00:23:21;;;;;;;0.20;0.20;;;8.90;99.90;;;;;;4940857;28;20379;-88
2022/11/14 00:25:46;;;;;;;0.20;0.20;;;8.90;99.90;;;;;;4948395;28;20240;-89
2022/11/14 00:28:12;;;;;;;0.30;0.30;;;8.90;99.90;;;;;;4951501;28;20194;-89
2022/11/14 00:30:37;;;;;;;0.23;0.23;;;8.80;99.90;;;;;;4946177;29;20278;-89
2022/11/14 00:33:03;;;;;;;0.20;0.20;;;8.80;99.90;;;;;;4962911;28;20562;-91
2022/11/14 00:35:28;;;;;;;0.20;0.20;;;8.80;99.90;;;;;;4950343;29;20187;-91
2022/11/14 00:37:54;;;;;;;0.30;0.30;;;8.80;99.90;;;;;;4969996;28;20194;-88
2022/11/14 00:40:19;;;;;;;0.20;0.20;;;8.70;99.90;;;;;;4952479;28;20258;-90
2022/11/14 00:42:45;;;;;;;0.20;0.20;;;8.70;99.90;;;;;;4951949;28;20198;-90
2022/11/14 00:45:10;;;;;;;0.20;0.20;;;8.60;99.90;;;;;;4949862;28;20832;-90
2022/11/14 00:47:36;;;;;;;0.20;0.20;;;8.50;99.90;;;;;;4951236;28;20661;-88
2022/11/14 00:50:03;;;;;;;0.30;0.30;;;8.50;99.90;;;;;;4945436;28;20202;-90
2022/11/14 00:52:28;;;;;;;0.30;0.30;;;8.40;99.90;;;;;;4938981;28;20179;-89
2022/11/14 00:54:53;;;;;;;0.20;0.20;;;8.30;99.90;;;;;;4948148;28;20444;-88
2022/11/14 00:57:19;;;;;;;0.20;0.20;;;8.30;99.90;;;;;;4951118;28;20187;-91
2022/11/14 00:59:44;;;;;;;0.20;0.20;;;8.30;99.90;;;;;;4952286;28;20557;-89
2022/11/14 01:02:16;;;;;;;0.20;0.20;;;8.20;99.90;;;;;;4945707;28;20206;-90
2022/11/14 01:04:41;;;;;;;0.20;0.20;;;8.20;99.90;;;;;;4949301;29;20298;-90
2022/11/14 01:07:07;;;;;;;0.30;0.30;;;8.20;99.90;;;;;;4950446;28;21033;-89
2022/11/14 01:09:32;;;;;;;0.20;0.20;;;8.20;99.90;;;;;;4950726;28;20206;-87
2022/11/14 01:11:58;;;;;;;0.30;0.30;;;8.20;99.90;;;;;;4949819;28;20206;-89
2022/11/14 01:14:23;;;;;;;0.30;0.30;;;8.20;99.90;;;;;;4962172;28;20281;-90
2022/11/14 01:16:49;;;;;;;0.23;0.23;;;8.30;99.90;;;;;;4951490;28;20190;-90
2022/11/14 01:19:14;;;;;;;0.20;0.20;;;8.30;99.90;;;;;;4947228;28;20210;-90
2022/11/14 01:21:40;;;;;;;0.20;0.20;;;8.30;99.90;;;;;;4994615;28;20183;-88
2022/11/14 01:24:06;;;;;;;0.30;0.30;;;8.30;99.90;;;;;;4953240;28;20258;-91
2022/11/14 01:26:31;;;;;;;0.30;0.30;;;8.30;99.90;;;;;;4935443;28;20198;-90
2022/11/14 01:28:57;;;;;;;0.30;0.30;;;8.30;99.90;;;;;;5001311;28;20187;-90
2022/11/14 01:31:24;;;;;;;0.30;0.30;;;8.20;99.90;;;;;;4942065;28;20215;-89
2022/11/14 01:33:51;;;;;;;0.23;0.23;;;8.20;99.90;;;;;;4951035;28;20183;-91
2022/11/14 01:36:17;;;;;;;0.30;0.30;;;8.20;99.90;;;;;;4948144;28;20443;-90
2022/11/14 01:38:43;;;;;;;0.30;0.30;;;8.20;99.90;;;;;;4950778;28;20493;-90
2022/11/14 01:41:12;;;;;;;0.30;0.30;;;8.10;99.90;;;;;;4949810;28;20446;-89
2022/11/14 01:43:39;;;;;;;0.30;0.30;;;8.00;99.90;;;;;;4955876;28;20214;-89
2022/11/14 01:46:25;;;;;;;0.30;0.30;;;8.00;99.90;;;;;;4947943;28;20489;-90
2022/11/14 01:48:58;;;;;;;0.27;0.27;;;8.10;99.90;;;;;;4950327;28;20446;-90
2022/11/14 01:51:42;;;;;;;0.20;0.20;;;8.00;99.90;;;;;;4952278;29;20461;-89
2022/11/14 01:54:14;;;;;;;0.30;0.30;;;8.10;99.90;;;;;;4949213;28;20469;-91
2022/11/14 01:56:44;;;;;;;0.30;0.30;;;8.20;99.90;;;;;;4952861;28;20426;-91
2022/11/14 01:59:14;;;;;;;0.20;0.20;;;8.20;99.90;;;;;;4947923;28;20459;-91
2022/11/14 02:01:48;;;;;;;0.20;0.20;;;8.20;99.90;;;;;;4954875;28;20592;-91
2022/11/14 02:04:27;;;;;;;0.30;0.30;;;8.30;99.90;;;;;;4946790;28;21035;-90
2022/11/14 02:06:57;;;;;;;0.30;0.30;;;8.30;99.90;;;;;;4945352;29;20473;-90
2022/11/14 02:09:22;;;;;;;0.30;0.30;;;8.30;99.90;;;;;;4958521;28;20442;-91
2022/11/14 02:11:49;;;;;;;0.30;0.30;;;8.30;99.90;;;;;;4946564;28;20931;-88
2022/11/14 02:14:14;;;;;;;0.23;0.23;;;8.30;99.90;;;;;;4953755;28;20195;-90
2022/11/14 02:16:41;;;;;;;0.23;0.23;;;8.30;99.90;;;;;;4953286;28;20448;-89
2022/11/14 02:19:08;;;;;;;0.30;0.30;;;8.30;99.90;;;;;;4952060;28;20187;-90
2022/11/14 02:21:34;;;;;;;0.20;0.20;;;8.30;99.90;;;;;;4953978;28;20453;-89
2022/11/14 02:23:59;;;;;;;0.30;0.30;;;8.30;99.90;;;;;;4941584;28;20493;-88
2022/11/14 02:26:25;;;;;;;0.30;0.30;;;8.30;99.90;;;;;;4949982;28;20479;-88
2022/11/14 02:28:51;;;;;;;0.20;0.20;;;8.30;99.90;;;;;;4949447;28;20191;-89
2022/11/14 02:31:17;;;;;;;0.20;0.20;;;8.40;99.90;;;;;;4950303;28;20242;-89
2022/11/14 02:33:42;;;;;;;0.30;0.30;;;8.30;99.90;;;;;;4940145;28;20454;-90
2022/11/14 02:36:08;;;;;;;0.30;0.30;;;8.30;99.90;;;;;;4948313;28;20868;-88
2022/11/14 02:38:34;;;;;;;0.20;0.20;;;8.30;99.90;;;;;;4949249;28;20250;-90
2022/11/14 02:41:00;;;;;;;0.30;0.30;;;8.30;99.90;;;;;;4949430;28;20832;-89
2022/11/14 02:43:26;;;;;;;0.30;0.30;;;8.30;99.90;;;;;;4943253;28;20451;-87
2022/11/14 02:45:51;;;;;;;0.30;0.30;;;8.30;99.90;;;;;;4944570;28;21021;-89
2022/11/14 02:48:17;;;;;;;0.30;0.30;;;8.30;99.90;;;;;;4951616;28;20186;-88
2022/11/14 02:50:43;;;;;;;0.30;0.30;;;8.30;99.90;;;;;;4953306;28;20179;-89
2022/11/14 02:53:09;;;;;;;0.20;0.20;;;8.30;99.90;;;;;;4952058;28;20643;-90
2022/11/14 02:55:34;;;;;;;0.20;0.20;;;8.30;99.90;;;;;;4942274;28;20199;-90
2022/11/14 02:58:00;;;;;;;0.20;0.20;;;8.30;99.90;;;;;;4946221;28;20194;-89
2022/11/14 03:00:25;;;;;;;0.20;0.20;;;8.20;99.90;;;;;;4948144;28;20195;-90
2022/11/14 03:02:54;;;;;;;0.30;0.30;;;8.20;99.90;;;;;;4931634;29;20214;-90
2022/11/14 03:05:19;;;;;;;0.20;0.20;;;8.20;99.90;;;;;;4942726;28;20269;-90
2022/11/14 03:07:45;;;;;;;0.30;0.30;;;8.30;99.90;;;;;;4949151;28;21233;-88
2022/11/14 03:10:12;;;;;;;0.20;0.20;;;8.30;99.90;;;;;;4945830;28;20203;-90
2022/11/14 03:12:38;;;;;;;0.30;0.30;;;8.20;99.90;;;;;;4947441;28;20190;-89
2022/11/14 03:15:07;;;;;;;0.20;0.20;;;8.20;99.90;;;;;;4946360;28;20462;-89
2022/11/14 03:17:33;;;;;;;0.20;0.20;;;8.20;99.90;;;;;;5050673;28;20424;-89
2022/11/14 03:19:59;;;;;;;0.30;0.30;;;8.20;99.90;;;;;;4949228;28;20450;-86
2022/11/14 03:22:25;;;;;;;0.23;0.23;;;8.20;99.90;;;;;;4950025;28;20214;-88
2022/11/14 03:24:51;;;;;;;0.20;0.20;;;8.20;99.90;;;;;;4946474;28;20257;-88
2022/11/14 03:27:17;;;;;;;0.20;0.20;;;8.20;99.90;;;;;;4949531;28;20532;-88
2022/11/14 03:29:42;;;;;;;0.30;0.30;;;8.20;99.90;;;;;;4948180;28;20194;-90
2022/11/14 03:32:08;;;;;;;0.20;0.20;;;8.20;99.90;;;;;;4952169;28;20195;-88
2022/11/14 03:34:33;;;;;;;0.20;0.20;;;8.20;99.90;;;;;;4948625;29;20214;-88
2022/11/14 03:36:59;;;;;;;0.30;0.30;;;8.20;99.90;;;;;;4954974;28;20179;-86
2022/11/14 03:39:26;;;;;;;0.20;0.20;;;8.20;99.90;;;;;;4947230;28;20245;-89
2022/11/14 03:41:51;;;;;;;0.20;0.20;;;8.20;99.90;;;;;;4947883;28;20230;-88
2022/11/14 03:44:17;;;;;;;0.20;0.20;;;8.20;99.90;;;;;;4949127;28;21061;-88
2022/11/14 03:46:42;;;;;;;0.20;0.20;;;8.20;99.90;;;;;;4953583;28;20187;-88
2022/11/14 03:49:08;;;;;;;0.20;0.20;;;8.20;99.90;;;;;;4950291;29;20194;-90
2022/11/14 03:51:34;;;;;;;0.30;0.30;;;8.20;99.90;;;;;;4945311;28;20210;-90
2022/11/14 03:53:59;;;;;;;0.23;0.23;;;8.30;99.90;;;;;;4948777;29;20203;-91
2022/11/14 03:56:24;;;;;;;0.20;0.20;;;8.20;99.90;;;;;;4947345;28;20179;-89
2022/11/14 03:58:50;;;;;;;0.20;0.20;;;8.20;99.90;;;;;;4949535;29;20187;-88
2022/11/14 04:01:15;;;;;;;0.30;0.30;;;8.20;99.90;;;;;;4946475;28;20215;-88
2022/11/14 04:03:41;;;;;;;0.20;0.20;;;8.20;99.90;;;;;;4948358;28;20242;-88
2022/11/14 04:06:06;;;;;;;0.20;0.20;;;8.20;99.90;;;;;;4950149;29;20202;-89
2022/11/14 04:08:32;;;;;;;0.30;0.30;;;8.20;99.90;;;;;;4944671;28;20178;-89
2022/11/14 04:10:57;;;;;;;0.20;0.20;;;8.10;99.90;;;;;;4950759;28;20191;-88
2022/11/14 04:13:23;;;;;;;0.20;0.20;;;8.10;99.90;;;;;;4948995;28;20195;-88
2022/11/14 04:15:56;;;;;;;0.30;0.30;;;8.10;99.90;;;;;;4950948;28;20193;-88
2022/11/14 04:18:22;;;;;;;0.30;0.30;;;8.10;99.90;;;;;;4952836;29;20670;-90
2022/11/14 04:20:48;;;;;;;0.20;0.20;;;8.10;99.90;;;;;;4951327;28;20446;-90
2022/11/14 04:23:13;;;;;;;0.20;0.20;;;8.00;99.90;;;;;;4959134;28;20442;-90
2022/11/14 04:25:39;;;;;;;0.30;0.30;;;8.00;99.90;;;;;;4949686;28;20654;-90
2022/11/14 04:28:04;;;;;;;0.30;0.30;;;8.10;99.90;;;;;;4951923;28;20229;-88
2022/11/14 04:30:29;;;;;;;0.30;0.30;;;8.10;99.90;;;;;;4948993;28;20218;-90
2022/11/14 04:32:55;;;;;;;0.20;0.20;;;8.10;99.90;;;;;;4952271;29;20191;-88
2022/11/14 04:35:20;;;;;;;0.30;0.30;;;8.00;99.90;;;;;;4949875;28;20278;-90
2022/11/14 04:37:46;;;;;;;0.30;0.30;;;8.00;99.90;;;;;;4949365;28;20194;-89
2022/11/14 04:40:12;;;;;;;0.20;0.20;;;8.00;99.90;;;;;;4948851;28;20235;-90
2022/11/14 04:42:37;;;;;;;0.30;0.30;;;8.00;99.90;;;;;;4940521;29;20183;-90
2022/11/14 04:45:03;;;;;;;0.20;0.20;;;8.00;99.90;;;;;;4948797;28;20230;-89
2022/11/14 04:47:28;;;;;;;0.23;0.23;;;8.00;99.90;;;;;;4957310;28;20201;-89
2022/11/14 04:49:54;;;;;;;0.20;0.20;;;8.00;99.90;;;;;;4954962;28;20269;-88
2022/11/14 04:52:19;;;;;;;0.30;0.30;;;8.00;99.90;;;;;;4951835;29;20191;-89
2022/11/14 04:54:45;;;;;;;0.30;0.30;;;8.00;99.90;;;;;;4952100;28;20229;-89
2022/11/14 04:57:10;;;;;;;0.30;0.30;;;8.00;99.90;;;;;;4952304;28;20748;-89
2022/11/14 04:59:36;;;;;;;0.30;0.30;;;8.00;99.90;;;;;;4951599;28;20186;-89
2022/11/14 05:02:01;;;;;;;0.20;0.20;;;8.00;99.90;;;;;;4952305;28;20194;-90
2022/11/14 05:04:27;;;;;;;0.30;0.30;;;8.00;99.90;;;;;;4954627;28;20268;-87
2022/11/14 05:06:52;;;;;;;0.30;0.30;;;8.00;99.90;;;;;;4951118;28;20916;-89
2022/11/14 05:09:18;;;;;;;0.27;0.27;;;8.00;99.90;;;;;;4946696;28;20240;-90
2022/11/14 05:11:43;;;;;;;0.20;0.20;;;7.90;99.90;;;;;;4949496;28;20699;-89
2022/11/14 05:14:09;;;;;;;0.30;0.30;;;7.90;99.90;;;;;;4950350;28;20273;-89
2022/11/14 05:16:34;;;;;;;0.20;0.20;;;7.90;99.90;;;;;;4952860;28;20198;-90
2022/11/14 05:19:00;;;;;;;0.30;0.30;;;7.90;99.90;;;;;;4952830;28;20195;-89
2022/11/14 05:21:25;;;;;;;0.20;0.20;;;7.90;99.90;;;;;;4951600;28;20664;-89
2022/11/14 05:23:51;;;;;;;0.20;0.20;;;7.90;99.90;;;;;;4950497;28;20218;-90
2022/11/14 05:26:17;;;;;;;0.30;0.30;;;8.00;99.90;;;;;;4959138;28;20596;-88
2022/11/14 05:28:43;;;;;;;0.20;0.20;;;7.90;99.90;;;;;;4949573;28;20195;-87
2022/11/14 05:31:12;;;;;;;0.20;0.20;;;7.90;99.90;;;;;;4948332;28;20512;-88
2022/11/14 05:33:38;;;;;;;0.30;0.30;;;8.00;99.90;;;;;;4950873;28;20193;-87
2022/11/14 05:36:04;;;;;;;0.20;0.20;;;7.90;99.90;;;;;;4949939;28;20942;-87
2022/11/14 05:38:30;;;;;;;0.30;0.30;;;7.90;99.90;;;;;;4953201;28;20624;-87
2022/11/14 05:40:55;;;;;;;0.20;0.20;;;7.90;99.90;;;;;;4948770;28;20450;-88
2022/11/14 05:43:21;;;;;;;0.20;0.20;;;7.90;99.90;;;;;;4946677;29;20282;-90
2022/11/14 05:45:46;;;;;;;0.20;0.20;;;7.90;99.90;;;;;;4940397;28;20198;-89
2022/11/14 05:48:12;;;;;;;0.20;0.20;;;7.90;99.90;;;;;;4947540;28;20195;-87
2022/11/14 05:50:37;;;;;;;0.20;0.20;;;7.90;99.90;;;;;;4953501;28;20191;-90
2022/11/14 05:53:03;;;;;;;0.20;0.20;;;7.90;99.90;;;;;;4960618;28;20195;-88
2022/11/14 05:55:28;;;;;;;0.30;0.30;;;7.90;99.90;;;;;;4942908;28;20187;-88
2022/11/14 05:57:57;;;;;;;0.30;0.30;;;7.90;99.90;;;;;;4972525;28;20226;-88
2022/11/14 06:00:23;;;;;;;0.20;0.20;;;7.90;99.90;;;;;;4940781;29;20187;-88
2022/11/14 06:02:53;;;;;;;0.30;0.30;;;7.90;99.90;;;;;;4943502;28;20450;-87
2022/11/14 06:05:23;;;;;;;0.20;0.20;;;7.90;99.90;;;;;;4941852;28;20938;-87
2022/11/14 06:07:57;;;;;;;0.30;0.30;;;7.90;99.90;;;;;;4969694;28;20546;-88
2022/11/14 06:10:23;;;;;;;0.20;0.20;;;8.00;99.90;;;;;;4947018;28;20950;-86
2022/11/14 06:12:49;;;;;;;0.30;0.30;;;7.90;99.90;;;;;;4946082;29;20511;-89
2022/11/14 06:15:14;;;;;;;0.30;0.30;;;7.90;99.90;;;;;;4949566;29;20443;-89
2022/11/14 06:17:40;;;;;;;0.30;0.30;;;7.90;99.90;;;;;;4953255;28;20191;-88
2022/11/14 06:20:06;;;;;;;0.20;0.20;;;7.90;99.90;;;;;;4949356;28;20190;-89
2022/11/14 06:22:33;;;;;;;0.30;0.30;;;7.90;99.90;;;;;;4949548;29;20199;-87
2022/11/14 06:24:58;;;;;;;0.20;0.20;;;7.90;99.90;;;;;;4950161;28;20643;-87
2022/11/14 06:27:24;;;;;;;0.30;0.30;;;7.90;99.90;;;;;;4951757;28;20529;-86
2022/11/14 06:29:49;;;;;;;0.30;0.30;;;7.90;99.90;;;;;;4955934;28;20245;-88
2022/11/14 06:32:14;;;;;;;0.30;0.30;;;7.80;99.90;;;;;;4941420;28;20195;-87
2022/11/14 06:34:40;;;;;;;0.20;0.20;;;7.90;99.90;;;;;;4940649;28;20220;-87
2022/11/14 06:37:05;;;;;;;0.20;0.20;;;7.90;99.90;;;;;;4942616;28;20223;-86
2022/11/14 06:39:31;;;;;;;0.30;0.30;;;7.80;99.90;;;;;;4945409;28;20238;-87
2022/11/14 06:41:57;;;;;;;0.30;0.30;;;7.80;99.90;;;;;;4945026;28;20190;-87
2022/11/14 06:44:22;;;;;;;0.30;0.30;;;7.80;99.90;;;;;;4959271;28;20265;-87
2022/11/14 06:46:48;;;;;;;0.30;0.30;;;7.80;99.90;;;;;;4954159;28;20194;-87
2022/11/14 06:49:13;;;;;;;0.30;0.30;;;7.80;99.90;;;;;;4950677;28;20203;-87
2022/11/14 06:51:39;;;;;;;0.30;0.30;;;7.80;99.90;;;;;;4939487;28;20213;-87
2022/11/14 06:54:05;;;;;;;0.30;0.30;;;7.80;99.90;;;;;;4951420;28;20592;-87
2022/11/14 06:56:30;;;;;;;0.30;0.30;;;7.80;99.90;;;;;;4952164;28;20183;-87
2022/11/14 06:58:56;;;;;;;0.23;0.23;;;7.80;99.90;;;;;;4951075;28;20194;-87
2022/11/14 07:01:24;;;;;;;0.30;0.30;;;7.80;99.90;;;;;;4949091;28;20285;-87
2022/11/14 07:03:51;;;;;;;0.20;0.20;;;7.80;99.90;;;;;;4950765;28;20210;-88
2022/11/14 07:06:23;;;;;;;0.20;0.20;;;7.80;99.90;;;;;;4946267;28;20465;-86
2022/11/14 07:08:49;;;;;;;0.30;0.30;;;7.80;99.90;;;;;;5006654;28;20438;-87
2022/11/14 07:11:21;;;;;;;0.20;0.20;;;7.80;99.90;;;;;;4945339;28;20457;-85
2022/11/14 07:13:56;;;;;;;0.30;0.30;;;7.80;99.90;;;;;;4947270;28;20634;-87
2022/11/14 07:16:29;;;;;;;0.30;0.30;;;7.80;99.90;;;;;;4943046;28;20460;-86
2022/11/14 07:18:56;;;;;;;0.30;0.30;;;7.80;99.90;;;;;;4947725;28;20450;-86
2022/11/14 07:21:23;;;;;;;0.23;0.23;;;7.80;99.90;;;;;;4950911;28;20450;-87
2022/11/14 07:23:48;;;;;;;0.20;0.20;;;7.90;99.90;;;;;;4949588;28;20569;-87
2022/11/14 07:26:14;;;;;;;0.30;0.30;;;7.90;99.90;;;;;;4943179;28;20544;-87
2022/11/14 07:28:42;;;;;;;0.30;0.30;;;7.80;99.90;;;;;;4947545;28;20237;-84
2022/11/14 07:31:11;;;;;;;0.30;0.30;;;7.90;99.90;;;;;;4951249;28;20225;-84
2022/11/14 07:33:37;;;;;;;0.30;0.30;;;7.90;99.90;;;;;;4938257;28;20454;-85
2022/11/14 07:36:03;;;;;;;0.30;0.30;;;7.90;99.90;;;;;;4948504;28;20507;-84
2022/11/14 07:38:30;;;;;;;0.20;0.20;;;8.00;99.90;;;;;;4948370;29;20970;-84
2022/11/14 07:40:58;;;;;;;0.30;0.30;;;7.90;99.90;;;;;;4945256;28;20280;-85
2022/11/14 07:43:24;;;;;;;0.30;0.30;;;8.00;99.90;;;;;;4949988;28;20442;-85
2022/11/14 07:45:50;;;;;;;0.20;0.20;;;8.00;99.90;;;;;;4946648;28;20513;-85
2022/11/14 07:48:15;;;;;;;0.20;0.20;;;8.00;99.90;;;;;;4952552;28;20496;-85
2022/11/14 07:50:41;;;;;;;0.30;0.30;;;8.00;99.90;;;;;;4951874;28;20226;-87
2022/11/14 07:53:07;;;;;;;0.30;0.30;;;7.90;99.90;;;;;;4964036;28;20190;-85
2022/11/14 07:55:35;;;;;;;0.30;0.30;;;8.00;99.90;;;;;;4957274;28;20183;-86
2022/11/14 07:58:00;;;;;;;0.20;0.20;;;7.90;99.90;;;;;;4948528;28;20445;-87
2022/11/14 08:00:26;;;;;;;0.27;0.27;;;7.90;99.90;;;;;;4951792;28;20449;-87
2022/11/14 08:02:51;;;;;;;0.20;0.20;;;8.00;99.90;;;;;;4944688;28;20195;-84
2022/11/14 08:05:17;;;;;;;0.30;0.30;;;7.90;99.90;;;;;;4953246;28;20239;-86
2022/11/14 08:07:43;;;;;;;0.20;0.20;;;7.90;99.90;;;;;;4956531;28;20198;-86
2022/11/14 08:10:10;;;;;;;0.20;0.20;;;7.90;99.90;;;;;;4945175;28;20454;-86
2022/11/14 08:12:38;;;;;;;0.20;0.20;;;7.90;99.90;;;;;;4945675;28;20187;-88
2022/11/14 08:15:05;;;;;;;0.20;0.20;;;7.90;99.90;;;;;;4952734;28;20835;-86
2022/11/14 08:17:31;;;;;;;0.30;0.30;;;7.90;99.90;;;;;;4951068;28;20847;-84
2022/11/14 08:19:56;;;;;;;0.20;0.20;;;7.90;99.90;;;;;;4950046;28;20495;-88
2022/11/14 08:22:22;;;;;;;0.30;0.30;;;8.00;99.90;;;;;;4948798;28;20194;-85
2022/11/14 08:24:47;;;;;;;0.30;0.30;;;8.00;99.90;;;;;;4954160;28;20309;-83
2022/11/14 08:27:13;;;;;;;0.30;0.30;;;7.80;99.90;;;;;;4951456;28;20190;-89
2022/11/14 08:29:38;;;;;;;0.20;0.20;;;7.80;99.90;;;;;;4974654;28;20210;-89
2022/11/14 08:32:04;;;;;;;0.30;0.30;;;7.80;99.90;;;;;;4941816;28;20195;-85
2022/11/14 08:34:29;;;;;;;0.30;0.30;;;7.80;99.90;;;;;;4947753;28;20202;-87
2022/11/14 08:36:56;;;;;;;0.20;0.20;;;7.90;99.90;;;;;;4946900;28;20603;-85
2022/11/14 08:39:22;;;;;;;0.20;0.20;;;7.90;99.90;;;;;;4945887;28;20295;-85
2022/11/14 08:41:47;;;;;;;0.30;0.30;;;7.80;99.90;;;;;;4949501;28;20938;-85
2022/11/14 08:44:13;;;;;;;0.20;0.20;;;7.80;99.90;;;;;;4951633;28;20306;-85
2022/11/14 08:46:38;;;;;;;0.30;0.30;;;7.90;99.90;;;;;;4951668;28;20290;-82
2022/11/14 08:49:04;;;;;;;0.30;0.30;;;7.90;99.90;;;;;;4947261;28;20198;-84
2022/11/14 08:51:29;;;;;;;0.20;0.20;;;7.80;99.90;;;;;;4949769;29;20662;-85
2022/11/14 08:53:55;;;;;;;0.20;0.20;;;7.90;99.90;;;;;;4941501;28;20204;-85
2022/11/14 08:56:21;;;;;;;0.20;0.20;;;7.90;99.90;;;;;;4950948;28;20190;-85
2022/11/14 08:58:47;;;;;;;0.30;0.30;;;7.90;99.90;;;;;;4955604;28;20285;-84
2022/11/14 09:01:12;;;;;;;0.20;0.20;;;7.90;99.90;;;;;;4956860;28;20584;-83
2022/11/14 09:03:38;;;;;;;0.27;0.27;;;7.90;99.90;;;;;;4948154;28;20654;-84
2022/11/14 09:06:03;;;;;;;0.20;0.20;;;7.90;99.90;;;;;;4945270;28;20203;-82
2022/11/14 09:08:30;;;;;;;0.30;0.30;;;7.90;99.90;;;;;;4953094;28;20201;-83
2022/11/14 09:10:59;;;;;;;0.23;0.23;;;8.00;99.90;;;;;;4974914;28;20225;-82
2022/11/14 09:13:26;;;;;;;0.30;0.30;;;8.00;99.90;;;;;;4949267;28;20460;-84
2022/11/14 09:15:52;;;;;;;0.30;0.30;;;7.90;99.90;;;;;;4950845;29;20438;-82
2022/11/14 09:18:17;;;;;;;0.20;0.20;;;7.90;99.90;;;;;;4965791;28;20941;-83
2022/11/14 09:20:43;;;;;;;0.30;0.30;;;7.90;99.90;;;;;;4942580;28;20195;-83
2022/11/14 09:23:09;;;;;;;0.30;0.30;;;7.80;99.90;;;;;;4946886;28;20187;-82
2022/11/14 09:25:35;;;;;;;0.30;0.30;;;7.70;99.90;;;;;;4946835;28;20261;-80
2022/11/14 09:28:06;;;;;;;0.30;0.30;;;7.80;99.90;;;;;;4949099;28;20431;-82
2022/11/14 09:30:32;;;;;;;0.20;0.20;;;7.80;99.90;;;;;;4949452;28;20480;-81
2022/11/14 09:33:00;;;;;;;0.20;0.20;;;7.80;99.90;;;;;;4942132;28;20442;-82
2022/11/14 09:35:26;;;;;;;0.30;0.30;;;7.80;99.90;;;;;;4966173;28;20442;-81
2022/11/14 09:37:59;;;;;;;0.30;0.30;;;7.90;99.90;;;;;;4931687;28;20958;-82
2022/11/14 09:40:25;;;;;;;0.30;0.30;;;7.90;99.90;;;;;;4947024;28;20565;-83
2022/11/14 09:43:14;;;;;;;0.30;0.30;;;8.00;99.90;;;;;;4949337;28;20561;-83
2022/11/14 09:45:47;;;;;;;0.23;0.23;;;8.00;99.90;;;;;;4943586;28;20228;-83
2022/11/14 09:48:17;;;;;;;0.20;0.20;;;8.00;99.90;;;;;;4945619;28;20446;-83
2022/11/14 09:50:50;;;;;;;0.30;0.30;;;8.10;99.90;;;;;;4952061;28;20455;-85
2022/11/14 09:53:32;;;;;;;0.30;0.30;;;8.10;99.90;;;;;;4953725;28;21264;-82
2022/11/14 09:55:58;;;;;;;0.20;0.20;;;7.90;99.90;;;;;;4948407;28;20498;-83
2022/11/14 09:58:25;;;;;;;0.30;0.30;;;7.90;99.90;;;;;;4949821;28;20516;-83
2022/11/14 10:01:00;;;;;;;0.30;0.30;;;7.90;99.90;;;;;;4952997;28;20274;-88
2022/11/14 10:03:45;;;;;;;0.30;0.30;;;8.00;99.90;;;;;;4957978;28;20449;-83
2022/11/14 10:06:11;;;;;;;0.30;0.30;;;8.00;99.90;;;;;;4948703;29;20568;-81
2022/11/14 10:08:43;;;;;;;0.30;0.30;;;7.90;99.90;;;;;;4956055;28;20957;-81
2022/11/14 10:11:30;;;;;;;0.30;0.30;;;7.80;99.90;;;;;;4952443;28;20195;-82
2022/11/14 10:14:17;;;;;;;0.30;0.30;;;7.80;99.90;;;;;;4931075;29;20455;-82
2022/11/14 10:17:02;;;;;;;0.20;0.20;;;7.80;99.90;;;;;;4945671;28;20446;-81
2022/11/14 10:19:43;;;;;;;0.30;0.30;;;7.80;99.90;;;;;;4953097;28;20596;-84
2022/11/14 10:22:23;;;;;;;0.30;0.30;;;7.70;99.90;;;;;;4942763;28;20454;-82
2022/11/14 10:25:16;;;;;;;0.30;0.30;;;7.60;99.90;;;;;;4946007;28;20490;-82
2022/11/14 10:27:48;;;;;;;0.30;0.30;;;7.60;99.90;;;;;;4952142;28;20466;-82
2022/11/14 10:30:14;;;;;;;0.30;0.30;;;7.60;99.90;;;;;;4947837;28;20495;-82
2022/11/14 10:33:08;;;;;;;0.20;0.20;;;7.60;99.90;;;;;;4944110;28;20462;-84
2022/11/14 10:35:47;;;;;;;0.30;0.30;;;7.50;99.90;;;;;;4958051;28;20453;-84
2022/11/14 10:38:18;;;;;;;0.27;0.27;;;7.60;99.90;;;;;;4952662;28;20450;-85
2022/11/14 10:40:48;;;;;;;0.30;0.30;;;7.50;99.90;;;;;;4945539;28;20461;-84
2022/11/14 10:43:43;;;;;;;0.30;0.30;;;7.60;99.90;;;;;;4948219;28;20457;-83
2022/11/14 10:46:23;;;;;;;0.30;0.30;;;7.50;99.90;;;;;;4951280;28;20573;-84
2022/11/14 10:48:50;;;;;;;0.30;0.30;;;7.50;99.90;;;;;;4945322;28;20977;-85
2022/11/14 10:51:28;;;;;;;0.20;0.20;;;7.60;99.90;;;;;;4953655;28;20442;-82
2022/11/14 10:54:08;;;;;;;0.20;0.20;;;7.60;99.90;;;;;;4934307;28;20963;-85
2022/11/14 10:56:33;;;;;;;0.20;0.20;;;7.60;99.90;;;;;;4944510;28;20480;-85
2022/11/14 10:58:59;;;;;;;0.30;0.30;;;7.60;99.90;;;;;;4950854;28;20446;-86
2022/11/14 11:01:43;;;;;;;0.30;0.30;;;7.70;99.90;;;;;;4952004;28;20264;-85
2022/11/14 11:04:14;;;;;;;0.30;0.30;;;7.70;99.90;;;;;;4947342;28;20240;-85
2022/11/14 11:06:40;;;;;;;0.30;0.30;;;7.70;99.90;;;;;;4956797;28;20469;-84
2022/11/14 11:12:00;;;;;;;0.30;0.30;;;7.60;99.90;;;;;;4950295;28;20477;-83
2022/11/14 11:14:27;;;;;;;0.30;0.30;;;7.80;99.90;;;;;;4946401;28;20473;-84
2022/11/14 11:17:11;;;;;;;0.30;0.30;;;7.80;99.90;;;;;;4946099;28;20539;-85
2022/11/14 11:19:38;;;;;;;0.30;0.30;;;7.80;99.90;;;;;;4964624;28;20458;-83
2022/11/14 11:22:21;;;;;;;0.30;0.30;;;7.80;99.90;;;;;;4943690;28;20454;-84
2022/11/14 11:24:47;;;;;;;0.20;0.20;;;7.80;99.90;;;;;;4951279;28;20508;-84
2022/11/14 11:27:26;;;;;;;0.30;0.30;;;7.80;99.90;;;;;;4953304;28;20790;-83
2022/11/14 11:30:07;;;;;;;0.30;0.30;;;7.80;99.90;;;;;;4952830;28;20235;-83
2022/11/14 11:32:33;;;;;;;0.30;0.30;;;7.80;99.90;;;;;;4949200;28;20530;-84
2022/11/14 11:35:02;;;;;;;0.30;0.30;;;7.80;99.90;;;;;;4953965;28;20549;-83
2022/11/14 11:37:55;;;;;;;0.30;0.30;;;7.80;99.90;;;;;;4942266;28;20529;-84
2022/11/14 11:40:24;;;;;;;0.30;0.30;;;7.80;99.90;;;;;;4940971;28;21549;-83
2022/11/14 11:43:03;;;;;;;0.30;0.30;;;7.90;99.90;;;;;;4941044;28;21000;-83
2022/11/14 11:45:31;;;;;;;0.20;0.20;;;7.90;99.90;;;;;;4945663;28;20490;-82
2022/11/14 11:48:02;;;;;;;0.20;0.20;;;8.00;99.90;;;;;;4930460;29;20434;-82
2022/11/14 11:50:29;;;;;;;0.30;0.30;;;8.20;99.90;;;;;;4943647;28;20446;-82
2022/11/14 11:53:11;;;;;;;0.30;0.30;;;8.10;99.90;;;;;;4948327;28;20449;-81
2022/11/14 11:55:43;;;;;;;0.20;0.20;;;8.20;99.90;;;;;;4940083;28;20523;-81
2022/11/14 11:58:08;;;;;;;0.20;0.20;;;8.20;99.90;;;;;;4939908;28;20446;-82
2022/11/14 12:00:34;;;;;;;0.27;0.27;;;8.10;99.90;;;;;;4943547;28;20442;-82
2022/11/14 12:03:00;;;;;;;0.30;0.30;;;8.10;99.90;;;;;;4939870;28;20219;-82
2022/11/14 12:05:49;;;;;;;0.30;0.30;;;8.10;99.90;;;;;;4952767;28;20226;-82
2022/11/14 12:08:37;;;;;;;0.27;0.27;;;8.00;99.90;;;;;;4949600;28;20523;-82
2022/11/14 12:11:05;;;;;;;0.30;0.30;;;8.10;99.90;;;;;;4961066;28;20445;-83
2022/11/14 12:13:44;;;;;;;0.23;0.23;;;8.20;99.90;;;;;;4954434;28;21009;-82
2022/11/14 12:16:27;;;;;;;0.30;0.30;;;8.20;99.90;;;;;;4953513;28;20454;-82
2022/11/14 12:19:21;;;;;;;0.20;0.20;;;8.20;99.90;;;;;;4964512;28;20504;-83
2022/11/14 12:22:02;;;;;;;0.30;0.30;;;8.20;99.90;;;;;;4939646;28;20799;-82
2022/11/14 12:24:55;;;;;;;0.30;0.30;;;8.30;99.90;;;;;;4942644;28;20523;-81
2022/11/14 12:27:43;;;;;;;0.30;0.30;;;8.30;99.90;;;;;;4952253;28;20508;-81
2022/11/14 12:30:23;;;;;;;0.20;0.20;;;8.40;99.90;;;;;;4945429;28;21130;-81
2022/11/14 12:32:59;;;;;;;0.20;0.20;;;8.50;99.90;;;;;;4968143;28;20454;-81
2022/11/14 12:35:30;;;;;;;0.20;0.20;;;8.50;99.90;;;;;;4949431;28;20546;-82
2022/11/14 12:37:57;;;;;;;0.20;0.20;;;8.50;99.90;;;;;;4957675;28;20441;-80
2022/11/14 12:40:33;;;;;;;0.20;0.20;;;8.50;99.90;;;;;;4949111;28;20470;-82
2022/11/14 12:43:00;;;;;;;0.20;0.20;;;8.50;99.90;;;;;;4950615;28;20448;-82
2022/11/14 12:45:35;;;;;;;0.20;0.20;;;8.60;99.90;;;;;;4944666;28;20518;-81
2022/11/14 12:48:14;;;;;;;0.20;0.20;;;8.90;99.90;;;;;;4942124;28;20441;-81
2022/11/14 12:50:42;;;;;;;0.20;0.20;;;9.30;99.90;;;;;;4947935;28;20512;-82
2022/11/14 12:53:35;;;;;;;0.20;0.20;;;9.70;99.90;;;;;;4946567;28;20532;-82
2022/11/14 12:56:12;;;;;;;0.20;0.20;;;10.60;99.90;;;;;;4946062;28;20442;-84
2022/11/14 12:59:00;;;;;;;0.20;0.20;;;11.40;99.90;;;;;;4944381;28;20444;-84
2022/11/14 13:01:32;;;;;;;0.10;0.10;;;11.90;99.90;;;;;;4948698;28;22292;-83
2022/11/14 13:04:21;;;;;;;0.10;0.10;;;12.10;99.90;;;;;;4968580;28;20508;-83
2022/11/14 13:07:11;;;;;;;0.10;0.10;;;12.20;99.90;;;;;;4949269;28;20450;-84
2022/11/14 13:10:11;;;;;;;0.10;0.10;;;12.90;99.90;;;;;;4943866;28;20494;-84